sensor_id;sensor_type;location;lat;lon;timestamp;temperature;humidity
66871;DHT22;53780;44.998;9.926;2022-10-16T06:01:15;18.09;77.95
66871;DHT22;53780;44.998;9.926;2022-10-16T06:04:19;18.16;78.04
66871;DHT22;53780;44.998;9.926;2022-10-16T06:07:23;18.12;77.98
66871;DHT22;53780;44.998;9.926;2022-10-16T06:10:27;18.11;77.90
66871;DHT22;53780;44.998;9.926;2022-10-16T06:13:32;18.12;77.72
66871;DHT22;53780;44.998;9.926;2022-10-16T06:16:36;18.12;77.80
66871;DHT22;53780;44.998;9.926;2022-10-16T06:19:40;18.15;77.61
66871;DHT22;53780;44.998;9.926;2022-10-16T06:22:44;18.21;77.44
66871;DHT22;53780;44.998;9.926;2022-10-16T06:25:49;18.28;77.22
66871;DHT22;53780;44.998;9.926;2022-10-16T06:28:57;18.30;76.93
66871;DHT22;53780;44.998;9.926;2022-10-16T06:32:01;18.38;76.77
66871;DHT22;53780;44.998;9.926;2022-10-16T06:35:05;18.48;76.66
66871;DHT22;53780;44.998;9.926;2022-10-16T06:38:09;18.57;76.42
66871;DHT22;53780;44.998;9.926;2022-10-16T06:41:15;18.64;75.69
66871;DHT22;53780;44.998;9.926;2022-10-16T06:44:20;18.70;75.66
66871;DHT22;53780;44.998;9.926;2022-10-16T06:47:23;18.78;75.61
66871;DHT22;53780;44.998;9.926;2022-10-16T06:50:27;18.81;75.41
66871;DHT22;53780;44.998;9.926;2022-10-16T06:53:33;18.87;75.57
66871;DHT22;53780;44.998;9.926;2022-10-16T06:56:38;18.93;75.37
66871;DHT22;53780;44.998;9.926;2022-10-16T06:59:42;19.00;75.90
66871;DHT22;53780;44.998;9.926;2022-10-16T07:02:46;19.05;75.69
66871;DHT22;53780;44.998;9.926;2022-10-16T07:05:50;19.14;75.64
66871;DHT22;53780;44.998;9.926;2022-10-16T07:08:54;19.21;75.11
66871;DHT22;53780;44.998;9.926;2022-10-16T07:11:57;19.25;75.24
66871;DHT22;53780;44.998;9.926;2022-10-16T07:15:01;19.33;75.02
66871;DHT22;53780;44.998;9.926;2022-10-16T07:18:05;19.36;74.93
66871;DHT22;53780;44.998;9.926;2022-10-16T07:21:17;19.28;75.46
66871;DHT22;53780;44.998;9.926;2022-10-16T07:24:22;19.14;75.83
66871;DHT22;53780;44.998;9.926;2022-10-16T07:27:28;19.16;75.47
66871;DHT22;53780;44.998;9.926;2022-10-16T07:30:34;19.03;75.49
66871;DHT22;53780;44.998;9.926;2022-10-16T07:33:40;19.07;75.47
66871;DHT22;53780;44.998;9.926;2022-10-16T07:36:48;19.36;75.01
66871;DHT22;53780;44.998;9.926;2022-10-16T07:39:52;19.65;73.49
66871;DHT22;53780;44.998;9.926;2022-10-16T07:42:56;19.83;73.32
66871;DHT22;53780;44.998;9.926;2022-10-16T07:46:00;20.20;72.44
66871;DHT22;53780;44.998;9.926;2022-10-16T07:49:05;20.39;71.03
66871;DHT22;53780;44.998;9.926;2022-10-16T07:52:08;20.55;71.32
66871;DHT22;53780;44.998;9.926;2022-10-16T07:55:12;20.65;71.07
66871;DHT22;53780;44.998;9.926;2022-10-16T07:58:17;21.04;69.08
66871;DHT22;53780;44.998;9.926;2022-10-16T08:01:21;21.10;68.73
66871;DHT22;53780;44.998;9.926;2022-10-16T08:04:24;21.26;68.68
66871;DHT22;53780;44.998;9.926;2022-10-16T08:07:28;21.47;67.49
66871;DHT22;53780;44.998;9.926;2022-10-16T08:10:32;21.79;67.02
66871;DHT22;53780;44.998;9.926;2022-10-16T08:13:35;21.90;66.34
66871;DHT22;53780;44.998;9.926;2022-10-16T08:16:39;22.48;65.27
66871;DHT22;53780;44.998;9.926;2022-10-16T08:19:47;23.13;63.11
66871;DHT22;53780;44.998;9.926;2022-10-16T08:22:51;23.61;61.10
66871;DHT22;53780;44.998;9.926;2022-10-16T08:26:02;23.89;60.50
66871;DHT22;53780;44.998;9.926;2022-10-16T08:29:06;24.22;61.15
66871;DHT22;53780;44.998;9.926;2022-10-16T08:32:13;24.65;58.21
66871;DHT22;53780;44.998;9.926;2022-10-16T08:35:17;25.77;54.42
66871;DHT22;53780;44.998;9.926;2022-10-16T08:38:21;26.66;53.35
66871;DHT22;53780;44.998;9.926;2022-10-16T08:51:09;27.16;52.33
66871;DHT22;53780;44.998;9.926;2022-10-16T08:54:21;29.33;46.45
66871;DHT22;53780;44.998;9.926;2022-10-16T08:57:27;31.49;42.65
66871;DHT22;53780;44.998;9.926;2022-10-16T09:00:32;33.03;39.12
66871;DHT22;53780;44.998;9.926;2022-10-16T09:04:04;33.68;37.46
66871;DHT22;53780;44.998;9.926;2022-10-16T09:13:50;32.21;40.70
66871;DHT22;53780;44.998;9.926;2022-10-16T09:20:46;30.96;42.66
66871;DHT22;53780;44.998;9.926;2022-10-16T09:23:54;31.08;42.62
66871;DHT22;53780;44.998;9.926;2022-10-16T09:27:00;30.27;43.52
66871;DHT22;53780;44.998;9.926;2022-10-16T09:30:16;31.03;41.93
66871;DHT22;53780;44.998;9.926;2022-10-16T09:33:27;31.29;41.47
66871;DHT22;53780;44.998;9.926;2022-10-16T09:36:43;29.66;44.63
66871;DHT22;53780;44.998;9.926;2022-10-16T09:39:50;30.88;42.04
66871;DHT22;53780;44.998;9.926;2022-10-16T09:49:31;32.98;38.39
66871;DHT22;53780;44.998;9.926;2022-10-16T09:52:35;32.25;40.05
66871;DHT22;53780;44.998;9.926;2022-10-16T09:55:54;32.05;40.07
66871;DHT22;53780;44.998;9.926;2022-10-16T09:59:01;30.76;41.96
66871;DHT22;53780;44.998;9.926;2022-10-16T10:02:11;31.89;39.80
66871;DHT22;53780;44.998;9.926;2022-10-16T10:05:25;31.31;40.98
66871;DHT22;53780;44.998;9.926;2022-10-16T10:08:30;29.75;43.85
66871;DHT22;53780;44.998;9.926;2022-10-16T10:14:51;30.99;40.38
66871;DHT22;53780;44.998;9.926;2022-10-16T10:17:57;29.88;43.15
66871;DHT22;53780;44.998;9.926;2022-10-16T10:21:02;31.36;41.41
66871;DHT22;53780;44.998;9.926;2022-10-16T10:24:10;31.57;39.49
66871;DHT22;53780;44.998;9.926;2022-10-16T10:27:16;31.63;40.62
66871;DHT22;53780;44.998;9.926;2022-10-16T10:30:27;30.05;43.32
66871;DHT22;53780;44.998;9.926;2022-10-16T10:37:41;29.13;46.58
66871;DHT22;53780;44.998;9.926;2022-10-16T10:44:37;30.93;41.72
66871;DHT22;53780;44.998;9.926;2022-10-16T10:47:47;31.05;41.51
66871;DHT22;53780;44.998;9.926;2022-10-16T10:51:08;31.23;40.43
66871;DHT22;53780;44.998;9.926;2022-10-16T11:01:16;28.17;47.35
66871;DHT22;53780;44.998;9.926;2022-10-16T11:07:39;29.35;44.24
66871;DHT22;53780;44.998;9.926;2022-10-16T11:10:53;29.45;44.38
66871;DHT22;53780;44.998;9.926;2022-10-16T11:17:13;29.33;45.08
66871;DHT22;53780;44.998;9.926;2022-10-16T11:20:26;29.33;45.14
66871;DHT22;53780;44.998;9.926;2022-10-16T11:23:41;29.26;44.82
66871;DHT22;53780;44.998;9.926;2022-10-16T11:26:47;28.86;46.38
66871;DHT22;53780;44.998;9.926;2022-10-16T11:30:01;28.00;47.88
66871;DHT22;53780;44.998;9.926;2022-10-16T11:36:21;27.08;49.02
66871;DHT22;53780;44.998;9.926;2022-10-16T11:39:29;27.11;49.84
66871;DHT22;53780;44.998;9.926;2022-10-16T11:42:37;27.63;48.85
66871;DHT22;53780;44.998;9.926;2022-10-16T11:45:51;27.25;49.52
66871;DHT22;53780;44.998;9.926;2022-10-16T11:49:25;27.41;48.73
66871;DHT22;53780;44.998;9.926;2022-10-16T11:52:46;27.67;48.36
66871;DHT22;53780;44.998;9.926;2022-10-16T11:55:55;27.45;48.86
66871;DHT22;53780;44.998;9.926;2022-10-16T11:59:04;26.80;50.14
66871;DHT22;53780;44.998;9.926;2022-10-16T12:08:48;26.74;51.47
66871;DHT22;53780;44.998;9.926;2022-10-16T12:11:52;26.40;52.13
66871;DHT22;53780;44.998;9.926;2022-10-16T12:15:28;26.42;51.67
66871;DHT22;53780;44.998;9.926;2022-10-16T12:18:32;26.42;51.11
66871;DHT22;53780;44.998;9.926;2022-10-16T12:21:36;26.48;51.90
66871;DHT22;53780;44.998;9.926;2022-10-16T12:24:42;26.06;52.71
66871;DHT22;53780;44.998;9.926;2022-10-16T12:28:00;25.75;53.08
66871;DHT22;53780;44.998;9.926;2022-10-16T12:31:09;25.40;53.52
66871;DHT22;53780;44.998;9.926;2022-10-16T12:34:26;25.51;54.34
66871;DHT22;53780;44.998;9.926;2022-10-16T12:37:36;25.60;54.71
66871;DHT22;53780;44.998;9.926;2022-10-16T12:40:40;25.64;52.70
66871;DHT22;53780;44.998;9.926;2022-10-16T12:43:47;25.84;53.39
66871;DHT22;53780;44.998;9.926;2022-10-16T12:46:51;25.91;52.82
66871;DHT22;53780;44.998;9.926;2022-10-16T12:49:57;26.12;52.97
66871;DHT22;53780;44.998;9.926;2022-10-16T12:53:03;25.83;53.04
66871;DHT22;53780;44.998;9.926;2022-10-16T12:56:23;25.77;53.07
66871;DHT22;53780;44.998;9.926;2022-10-16T13:02:51;25.92;52.11
66871;DHT22;53780;44.998;9.926;2022-10-16T13:06:16;25.80;52.01
66871;DHT22;53780;44.998;9.926;2022-10-16T13:09:27;25.70;53.06
66871;DHT22;53780;44.998;9.926;2022-10-16T13:16:12;25.83;54.02
66871;DHT22;53780;44.998;9.926;2022-10-16T13:26:40;25.66;53.14
66871;DHT22;53780;44.998;9.926;2022-10-16T13:29:52;25.63;52.87
66871;DHT22;53780;44.998;9.926;2022-10-16T13:33:16;25.39;53.27
66871;DHT22;53780;44.998;9.926;2022-10-16T13:36:24;24.94;53.45
66871;DHT22;53780;44.998;9.926;2022-10-16T13:39:30;24.95;53.61
66871;DHT22;53780;44.998;9.926;2022-10-16T13:42:33;24.94;54.62
66871;DHT22;53780;44.998;9.926;2022-10-16T13:45:38;24.91;53.99
66871;DHT22;53780;44.998;9.926;2022-10-16T13:48:42;24.74;53.78
66871;DHT22;53780;44.998;9.926;2022-10-16T13:52:00;24.75;53.92
66871;DHT22;53780;44.998;9.926;2022-10-16T13:55:11;24.65;54.17
66871;DHT22;53780;44.998;9.926;2022-10-16T13:58:16;24.49;53.40
66871;DHT22;53780;44.998;9.926;2022-10-16T14:01:25;24.39;53.74
66871;DHT22;53780;44.998;9.926;2022-10-16T14:04:32;24.34;54.36
66871;DHT22;53780;44.998;9.926;2022-10-16T14:07:38;24.33;54.59
66871;DHT22;53780;44.998;9.926;2022-10-16T14:10:42;24.46;54.59
66871;DHT22;53780;44.998;9.926;2022-10-16T14:13:46;24.41;54.76
66871;DHT22;53780;44.998;9.926;2022-10-16T14:16:51;24.49;54.17
66871;DHT22;53780;44.998;9.926;2022-10-16T14:19:58;24.47;53.42
66871;DHT22;53780;44.998;9.926;2022-10-16T14:26:26;24.59;54.41
66871;DHT22;53780;44.998;9.926;2022-10-16T14:29:31;24.54;55.20
66871;DHT22;53780;44.998;9.926;2022-10-16T14:32:35;24.52;55.84
66871;DHT22;53780;44.998;9.926;2022-10-16T14:35:39;24.56;55.64
66871;DHT22;53780;44.998;9.926;2022-10-16T14:39:02;24.33;56.21
66871;DHT22;53780;44.998;9.926;2022-10-16T14:42:18;24.17;57.13
66871;DHT22;53780;44.998;9.926;2022-10-16T14:45:29;24.23;56.61
66871;DHT22;53780;44.998;9.926;2022-10-16T14:48:33;24.04;57.67
66871;DHT22;53780;44.998;9.926;2022-10-16T14:51:38;24.10;57.13
66871;DHT22;53780;44.998;9.926;2022-10-16T14:54:48;24.17;56.89
66871;DHT22;53780;44.998;9.926;2022-10-16T14:57:52;24.06;55.99
66871;DHT22;53780;44.998;9.926;2022-10-16T15:00:57;24.22;56.78
66871;DHT22;53780;44.998;9.926;2022-10-16T15:04:00;24.22;56.20
66871;DHT22;53780;44.998;9.926;2022-10-16T15:07:04;24.25;56.19
66871;DHT22;53780;44.998;9.926;2022-10-16T15:10:08;24.25;55.10
66871;DHT22;53780;44.998;9.926;2022-10-16T15:13:13;24.26;54.78
66871;DHT22;53780;44.998;9.926;2022-10-16T15:16:17;24.17;54.91
66871;DHT22;53780;44.998;9.926;2022-10-16T15:19:21;24.30;55.03
66871;DHT22;53780;44.998;9.926;2022-10-16T15:22:25;24.34;54.56
66871;DHT22;53780;44.998;9.926;2022-10-16T15:28:39;23.98;55.61
66871;DHT22;53780;44.998;9.926;2022-10-16T15:31:43;23.88;55.60
66871;DHT22;53780;44.998;9.926;2022-10-16T15:34:46;23.95;54.67
66871;DHT22;53780;44.998;9.926;2022-10-16T15:37:50;24.05;54.04
66871;DHT22;53780;44.998;9.926;2022-10-16T15:40:54;23.88;54.78
66871;DHT22;53780;44.998;9.926;2022-10-16T15:43:58;23.77;55.49
66871;DHT22;53780;44.998;9.926;2022-10-16T15:47:02;23.61;56.28
66871;DHT22;53780;44.998;9.926;2022-10-16T15:50:06;23.54;56.22
66871;DHT22;53780;44.998;9.926;2022-10-16T15:53:11;23.49;56.43
66871;DHT22;53780;44.998;9.926;2022-10-16T15:56:15;23.34;56.72
66871;DHT22;53780;44.998;9.926;2022-10-16T15:59:20;23.24;57.04
66871;DHT22;53780;44.998;9.926;2022-10-16T16:02:23;23.14;57.55
66871;DHT22;53780;44.998;9.926;2022-10-16T16:05:27;23.05;57.86
66871;DHT22;53780;44.998;9.926;2022-10-16T16:08:32;22.96;58.41
66871;DHT22;53780;44.998;9.926;2022-10-16T16:11:37;22.78;59.09
66871;DHT22;53780;44.998;9.926;2022-10-16T16:14:42;22.61;59.48
66871;DHT22;53780;44.998;9.926;2022-10-16T16:17:49;22.44;60.22
66871;DHT22;53780;44.998;9.926;2022-10-16T16:20:53;22.30;60.56
66871;DHT22;53780;44.998;9.926;2022-10-16T16:23:57;22.20;60.42
66871;DHT22;53780;44.998;9.926;2022-10-16T16:27:01;22.11;60.99
66871;DHT22;53780;44.998;9.926;2022-10-16T16:30:10;21.99;61.41
66871;DHT22;53780;44.998;9.926;2022-10-16T16:33:14;21.85;61.69
66871;DHT22;53780;44.998;9.926;2022-10-16T16:36:18;21.72;62.22
66871;DHT22;53780;44.998;9.926;2022-10-16T16:39:23;21.56;62.77
66871;DHT22;53780;44.998;9.926;2022-10-16T16:42:28;21.44;63.11
66871;DHT22;53780;44.998;9.926;2022-10-16T16:45:35;21.34;63.68
66871;DHT22;53780;44.998;9.926;2022-10-16T16:48:40;21.24;63.68
66871;DHT22;53780;44.998;9.926;2022-10-16T16:51:45;21.38;63.43
66871;DHT22;53780;44.998;9.926;2022-10-16T16:54:49;21.45;62.78
66871;DHT22;53780;44.998;9.926;2022-10-16T16:57:55;21.56;62.35
66871;DHT22;53780;44.998;9.926;2022-10-16T17:01:01;21.65;62.05
66871;DHT22;53780;44.998;9.926;2022-10-16T17:04:06;21.65;62.07
66871;DHT22;53780;44.998;9.926;2022-10-16T17:07:10;21.63;61.94
66871;DHT22;53780;44.998;9.926;2022-10-16T17:10:14;21.54;62.23
66871;DHT22;53780;44.998;9.926;2022-10-16T17:13:19;21.52;62.43
66871;DHT22;53780;44.998;9.926;2022-10-16T17:16:32;21.52;62.51
66871;DHT22;53780;44.998;9.926;2022-10-16T17:19:36;21.48;62.74
66871;DHT22;53780;44.998;9.926;2022-10-16T17:22:41;21.47;63.02
66871;DHT22;53780;44.998;9.926;2022-10-16T17:25:45;21.45;63.09
66871;DHT22;53780;44.998;9.926;2022-10-16T17:28:54;21.39;63.17
66871;DHT22;53780;44.998;9.926;2022-10-16T17:31:58;21.30;63.42
66871;DHT22;53780;44.998;9.926;2022-10-16T17:35:02;21.26;63.56
66871;DHT22;53780;44.998;9.926;2022-10-16T17:38:06;21.21;63.75
66871;DHT22;53780;44.998;9.926;2022-10-16T17:41:21;21.18;63.85
66871;DHT22;53780;44.998;9.926;2022-10-16T17:44:26;21.12;64.05
66871;DHT22;53780;44.998;9.926;2022-10-16T17:47:30;21.08;64.12
66871;DHT22;53780;44.998;9.926;2022-10-16T17:50:33;21.06;64.40
66871;DHT22;53780;44.998;9.926;2022-10-16T17:53:38;20.97;64.61
66871;DHT22;53780;44.998;9.926;2022-10-16T17:56:42;20.90;64.88
66871;DHT22;53780;44.998;9.926;2022-10-16T17:59:46;20.86;65.04
66871;DHT22;53780;44.998;9.926;2022-10-16T18:02:50;20.86;65.21
66871;DHT22;53780;44.998;9.926;2022-10-16T18:05:55;20.77;65.41
66871;DHT22;53780;44.998;9.926;2022-10-16T18:09:00;20.71;65.56
66871;DHT22;53780;44.998;9.926;2022-10-16T18:12:04;20.69;65.72
66871;DHT22;53780;44.998;9.926;2022-10-16T18:15:09;20.65;65.72
66871;DHT22;53780;44.998;9.926;2022-10-16T18:18:13;20.65;65.80
66871;DHT22;53780;44.998;9.926;2022-10-16T18:21:18;20.65;65.88
66871;DHT22;53780;44.998;9.926;2022-10-16T18:24:24;20.66;65.83
66871;DHT22;53780;44.998;9.926;2022-10-16T18:27:28;20.69;65.76
66871;DHT22;53780;44.998;9.926;2022-10-16T18:30:31;20.68;65.67
66871;DHT22;53780;44.998;9.926;2022-10-16T18:33:36;20.63;65.78
66871;DHT22;53780;44.998;9.926;2022-10-16T18:36:40;20.61;65.95
66871;DHT22;53780;44.998;9.926;2022-10-16T18:39:46;20.55;66.02
66871;DHT22;53780;44.998;9.926;2022-10-16T18:42:52;20.55;66.07
66871;DHT22;53780;44.998;9.926;2022-10-16T18:45:58;20.53;66.31
66871;DHT22;53780;44.998;9.926;2022-10-16T18:49:02;20.53;66.65
66871;DHT22;53780;44.998;9.926;2022-10-16T18:52:07;20.42;66.98
66871;DHT22;53780;44.998;9.926;2022-10-16T18:55:11;20.32;66.59
66871;DHT22;53780;44.998;9.926;2022-10-16T18:58:15;20.17;66.34
66871;DHT22;53780;44.998;9.926;2022-10-16T19:01:22;19.98;65.41
66871;DHT22;53780;44.998;9.926;2022-10-16T19:04:27;19.81;66.18
66871;DHT22;53780;44.998;9.926;2022-10-16T19:07:30;19.73;67.43
66871;DHT22;53780;44.998;9.926;2022-10-16T19:10:36;19.66;68.41
66871;DHT22;53780;44.998;9.926;2022-10-16T19:13:41;19.71;68.61
66871;DHT22;53780;44.998;9.926;2022-10-16T19:16:45;19.76;68.69
66871;DHT22;53780;44.998;9.926;2022-10-16T19:19:48;19.76;68.59
66871;DHT22;53780;44.998;9.926;2022-10-16T19:22:52;19.79;68.56
66871;DHT22;53780;44.998;9.926;2022-10-16T19:26:10;19.74;68.55
66871;DHT22;53780;44.998;9.926;2022-10-16T19:29:15;19.71;68.86
66871;DHT22;53780;44.998;9.926;2022-10-16T19:32:19;19.70;68.96
66871;DHT22;53780;44.998;9.926;2022-10-16T19:35:23;19.70;69.06
66871;DHT22;53780;44.998;9.926;2022-10-16T19:38:29;19.65;69.17
66871;DHT22;53780;44.998;9.926;2022-10-16T19:41:35;19.56;69.39
66871;DHT22;53780;44.998;9.926;2022-10-16T19:44:39;19.46;69.76
66871;DHT22;53780;44.998;9.926;2022-10-16T19:47:43;19.49;69.99
66871;DHT22;53780;44.998;9.926;2022-10-16T19:50:48;19.46;70.28
66871;DHT22;53780;44.998;9.926;2022-10-16T19:54:01;19.48;70.37
66871;DHT22;53780;44.998;9.926;2022-10-16T19:57:05;19.48;70.43
66871;DHT22;53780;44.998;9.926;2022-10-16T20:00:10;19.38;70.86
66871;DHT22;53780;44.998;9.926;2022-10-16T20:03:15;19.28;71.17
66871;DHT22;53780;44.998;9.926;2022-10-16T20:06:20;19.14;71.17
66871;DHT22;53780;44.998;9.926;2022-10-16T20:09:24;19.03;71.68
66871;DHT22;53780;44.998;9.926;2022-10-16T20:12:28;18.90;72.09
66871;DHT22;53780;44.998;9.926;2022-10-16T20:15:36;18.83;72.02
66871;DHT22;53780;44.998;9.926;2022-10-16T20:18:40;18.78;71.98
66871;DHT22;53780;44.998;9.926;2022-10-16T20:21:44;18.74;72.28
66871;DHT22;53780;44.998;9.926;2022-10-16T20:24:48;18.66;72.70
66871;DHT22;53780;44.998;9.926;2022-10-16T20:27:52;18.67;72.85
66871;DHT22;53780;44.998;9.926;2022-10-16T20:30:55;18.68;72.80
66871;DHT22;53780;44.998;9.926;2022-10-16T20:34:06;18.74;72.84
66871;DHT22;53780;44.998;9.926;2022-10-16T20:37:10;18.70;72.87
66871;DHT22;53780;44.998;9.926;2022-10-16T20:40:15;18.64;73.16
66871;DHT22;53780;44.998;9.926;2022-10-16T20:43:19;18.61;73.29
66871;DHT22;53780;44.998;9.926;2022-10-16T20:46:25;18.61;73.39
66871;DHT22;53780;44.998;9.926;2022-10-16T20:49:30;18.56;73.45
66871;DHT22;53780;44.998;9.926;2022-10-16T20:52:34;18.53;73.25
66871;DHT22;53780;44.998;9.926;2022-10-16T20:55:38;18.43;73.62
66871;DHT22;53780;44.998;9.926;2022-10-16T20:58:43;18.38;73.74
66871;DHT22;53780;44.998;9.926;2022-10-16T21:01:48;18.38;73.92
66871;DHT22;53780;44.998;9.926;2022-10-16T21:04:52;18.38;73.96
66871;DHT22;53780;44.998;9.926;2022-10-16T21:07:57;18.33;74.10
66871;DHT22;53780;44.998;9.926;2022-10-16T21:11:08;18.30;74.21
66871;DHT22;53780;44.998;9.926;2022-10-16T21:14:13;18.26;74.23
66871;DHT22;53780;44.998;9.926;2022-10-16T21:17:17;18.24;74.31
66871;DHT22;53780;44.998;9.926;2022-10-16T21:20:21;18.16;74.27
66871;DHT22;53780;44.998;9.926;2022-10-16T21:23:26;18.12;74.17
66871;DHT22;53780;44.998;9.926;2022-10-16T21:26:30;18.09;74.17
66871;DHT22;53780;44.998;9.926;2022-10-16T21:29:34;18.08;74.33
66871;DHT22;53780;44.998;9.926;2022-10-16T21:32:38;17.98;73.90
66871;DHT22;53780;44.998;9.926;2022-10-16T21:35:42;17.94;74.44
66871;DHT22;53780;44.998;9.926;2022-10-16T21:38:46;17.95;74.54
66871;DHT22;53780;44.998;9.926;2022-10-16T21:41:50;17.98;74.61
66871;DHT22;53780;44.998;9.926;2022-10-16T21:44:54;17.98;74.73
66871;DHT22;53780;44.998;9.926;2022-10-16T21:47:58;17.98;74.86
66871;DHT22;53780;44.998;9.926;2022-10-16T21:51:03;17.95;74.85
66871;DHT22;53780;44.998;9.926;2022-10-16T21:54:09;17.94;74.77
66871;DHT22;53780;44.998;9.926;2022-10-16T21:57:13;17.80;73.08
66871;DHT22;53780;44.998;9.926;2022-10-16T22:00:17;17.80;74.24
66871;DHT22;53780;44.998;9.926;2022-10-16T22:03:21;17.75;74.94
66871;DHT22;53780;44.998;9.926;2022-10-16T22:06:26;17.74;75.39
66871;DHT22;53780;44.998;9.926;2022-10-16T22:09:30;17.73;75.45
66871;DHT22;53780;44.998;9.926;2022-10-16T22:12:34;17.67;75.53
66871;DHT22;53780;44.998;9.926;2022-10-16T22:15:38;17.64;75.70
66871;DHT22;53780;44.998;9.926;2022-10-16T22:18:51;17.59;76.05
66871;DHT22;53780;44.998;9.926;2022-10-16T22:21:54;17.57;75.97
66871;DHT22;53780;44.998;9.926;2022-10-16T22:24:59;17.49;74.48
66871;DHT22;53780;44.998;9.926;2022-10-16T22:28:03;17.39;74.94
66871;DHT22;53780;44.998;9.926;2022-10-16T22:31:09;17.37;75.70
66871;DHT22;53780;44.998;9.926;2022-10-16T22:34:13;17.36;76.05
66871;DHT22;53780;44.998;9.926;2022-10-16T22:37:17;17.39;76.18
66871;DHT22;53780;44.998;9.926;2022-10-16T22:40:21;17.40;76.17
66871;DHT22;53780;44.998;9.926;2022-10-16T22:43:25;17.30;75.48
66871;DHT22;53780;44.998;9.926;2022-10-16T22:46:30;17.25;75.18
66871;DHT22;53780;44.998;9.926;2022-10-16T22:49:34;17.20;75.78
66871;DHT22;53780;44.998;9.926;2022-10-16T22:52:38;17.18;76.16
66871;DHT22;53780;44.998;9.926;2022-10-16T22:55:42;17.05;76.23
66871;DHT22;53780;44.998;9.926;2022-10-16T22:58:47;16.95;75.37
66871;DHT22;53780;44.998;9.926;2022-10-16T23:01:51;16.95;75.73
66871;DHT22;53780;44.998;9.926;2022-10-16T23:04:54;17.01;75.03
66871;DHT22;53780;44.998;9.926;2022-10-16T23:07:58;16.89;74.54
66871;DHT22;53780;44.998;9.926;2022-10-16T23:11:07;16.82;75.06
66871;DHT22;53780;44.998;9.926;2022-10-16T23:14:12;16.80;74.99
66871;DHT22;53780;44.998;9.926;2022-10-16T23:17:15;16.81;75.06
66871;DHT22;53780;44.998;9.926;2022-10-16T23:20:19;16.78;74.96
66871;DHT22;53780;44.998;9.926;2022-10-16T23:23:23;16.71;74.11
66871;DHT22;53780;44.998;9.926;2022-10-16T23:26:27;16.61;74.04
66871;DHT22;53780;44.998;9.926;2022-10-16T23:29:31;16.49;74.36
66871;DHT22;53780;44.998;9.926;2022-10-16T23:32:34;16.40;75.11
66871;DHT22;53780;44.998;9.926;2022-10-16T23:35:39;16.36;75.68
66871;DHT22;53780;44.998;9.926;2022-10-16T23:38:43;16.37;76.15
66871;DHT22;53780;44.998;9.926;2022-10-16T23:41:47;16.36;76.59
66871;DHT22;53780;44.998;9.926;2022-10-16T23:44:51;16.43;76.91
66871;DHT22;53780;44.998;9.926;2022-10-16T23:47:55;16.44;76.92
66871;DHT22;53780;44.998;9.926;2022-10-16T23:50:59;16.46;76.68
66871;DHT22;53780;44.998;9.926;2022-10-16T23:54:03;16.37;74.90
66871;DHT22;53780;44.998;9.926;2022-10-16T23:57:07;16.27;73.78
